sensor_id;sensor_type;location;lat;lon;timestamp;P1;durP1;ratioP1;P2;durP2;ratioP2
15950;SDS011;8074;48.112;11.570;2022-07-25T00:00:23;13.50;;;11.53;;
15950;SDS011;8074;48.112;11.570;2022-07-25T00:02:50;13.13;;;11.83;;
15950;SDS011;8074;48.112;11.570;2022-07-25T00:05:18;12.83;;;11.63;;
15950;SDS011;8074;48.112;11.570;2022-07-25T00:07:45;12.83;;;11.53;;
15950;SDS011;8074;48.112;11.570;2022-07-25T00:10:12;12.80;;;11.50;;
15950;SDS011;8074;48.112;11.570;2022-07-25T00:12:39;12.27;;;11.10;;
15950;SDS011;8074;48.112;11.570;2022-07-25T00:15:07;12.70;;;11.40;;
15950;SDS011;8074;48.112;11.570;2022-07-25T00:17:36;12.70;;;11.60;;
15950;SDS011;8074;48.112;11.570;2022-07-25T00:20:04;12.60;;;11.30;;
15950;SDS011;8074;48.112;11.570;2022-07-25T00:22:32;13.37;;;11.93;;
15950;SDS011;8074;48.112;11.570;2022-07-25T00:24:59;13.73;;;12.00;;
15950;SDS011;8074;48.112;11.570;2022-07-25T00:27:26;12.60;;;11.57;;
15950;SDS011;8074;48.112;11.570;2022-07-25T00:29:53;13.10;;;11.47;;
15950;SDS011;8074;48.112;11.570;2022-07-25T00:32:21;13.60;;;12.33;;
15950;SDS011;8074;48.112;11.570;2022-07-25T00:34:49;13.50;;;12.20;;
15950;SDS011;8074;48.112;11.570;2022-07-25T00:37:16;12.57;;;11.47;;
15950;SDS011;8074;48.112;11.570;2022-07-25T00:39:43;12.73;;;11.53;;
15950;SDS011;8074;48.112;11.570;2022-07-25T00:42:11;13.10;;;11.90;;
15950;SDS011;8074;48.112;11.570;2022-07-25T00:44:38;14.17;;;11.57;;
15950;SDS011;8074;48.112;11.570;2022-07-25T00:47:05;13.13;;;11.93;;
15950;SDS011;8074;48.112;11.570;2022-07-25T00:49:32;12.93;;;11.63;;
15950;SDS011;8074;48.112;11.570;2022-07-25T00:52:02;13.50;;;12.10;;
15950;SDS011;8074;48.112;11.570;2022-07-25T00:54:29;12.73;;;11.53;;
15950;SDS011;8074;48.112;11.570;2022-07-25T00:56:56;12.23;;;11.07;;
15950;SDS011;8074;48.112;11.570;2022-07-25T00:59:23;13.03;;;11.83;;
15950;SDS011;8074;48.112;11.570;2022-07-25T01:01:51;13.23;;;11.90;;
15950;SDS011;8074;48.112;11.570;2022-07-25T01:04:18;13.83;;;12.53;;
15950;SDS011;8074;48.112;11.570;2022-07-25T01:06:45;13.67;;;12.33;;
15950;SDS011;8074;48.112;11.570;2022-07-25T01:09:14;13.87;;;12.47;;
15950;SDS011;8074;48.112;11.570;2022-07-25T01:11:41;12.90;;;11.70;;
15950;SDS011;8074;48.112;11.570;2022-07-25T01:14:09;12.30;;;11.10;;
15950;SDS011;8074;48.112;11.570;2022-07-25T01:16:36;15.73;;;14.13;;
15950;SDS011;8074;48.112;11.570;2022-07-25T01:19:05;13.87;;;12.57;;
15950;SDS011;8074;48.112;11.570;2022-07-25T01:21:35;13.90;;;12.50;;
15950;SDS011;8074;48.112;11.570;2022-07-25T01:24:03;13.43;;;12.23;;
15950;SDS011;8074;48.112;11.570;2022-07-25T01:26:31;15.00;;;13.60;;
15950;SDS011;8074;48.112;11.570;2022-07-25T01:28:58;13.17;;;11.97;;
15950;SDS011;8074;48.112;11.570;2022-07-25T01:31:25;13.70;;;12.27;;
15950;SDS011;8074;48.112;11.570;2022-07-25T01:33:52;20.57;;;18.60;;
15950;SDS011;8074;48.112;11.570;2022-07-25T01:36:19;16.10;;;14.43;;
15950;SDS011;8074;48.112;11.570;2022-07-25T01:38:48;13.00;;;11.70;;
15950;SDS011;8074;48.112;11.570;2022-07-25T01:41:15;13.23;;;12.03;;
15950;SDS011;8074;48.112;11.570;2022-07-25T01:43:42;13.33;;;12.03;;
15950;SDS011;8074;48.112;11.570;2022-07-25T01:46:09;13.80;;;12.40;;
15950;SDS011;8074;48.112;11.570;2022-07-25T01:48:36;14.07;;;12.63;;
15950;SDS011;8074;48.112;11.570;2022-07-25T01:51:03;14.17;;;12.77;;
15950;SDS011;8074;48.112;11.570;2022-07-25T01:53:31;13.23;;;12.03;;
15950;SDS011;8074;48.112;11.570;2022-07-25T01:55:59;13.63;;;12.07;;
15950;SDS011;8074;48.112;11.570;2022-07-25T01:58:26;14.80;;;13.27;;
15950;SDS011;8074;48.112;11.570;2022-07-25T02:00:53;14.37;;;12.97;;
15950;SDS011;8074;48.112;11.570;2022-07-25T02:03:20;14.20;;;12.87;;
15950;SDS011;8074;48.112;11.570;2022-07-25T02:06:00;16.10;;;14.57;;
15950;SDS011;8074;48.112;11.570;2022-07-25T02:08:29;13.63;;;12.43;;
15950;SDS011;8074;48.112;11.570;2022-07-25T02:11:01;19.40;;;17.40;;
15950;SDS011;8074;48.112;11.570;2022-07-25T02:13:32;14.50;;;13.10;;
15950;SDS011;8074;48.112;11.570;2022-07-25T02:16:18;14.40;;;12.97;;
15950;SDS011;8074;48.112;11.570;2022-07-25T02:18:58;13.80;;;12.57;;
15950;SDS011;8074;48.112;11.570;2022-07-25T02:21:25;13.97;;;12.57;;
15950;SDS011;8074;48.112;11.570;2022-07-25T02:23:53;14.00;;;12.37;;
15950;SDS011;8074;48.112;11.570;2022-07-25T02:26:22;14.17;;;12.80;;
15950;SDS011;8074;48.112;11.570;2022-07-25T02:28:50;14.20;;;12.80;;
15950;SDS011;8074;48.112;11.570;2022-07-25T02:31:18;13.43;;;12.33;;
15950;SDS011;8074;48.112;11.570;2022-07-25T02:33:46;14.97;;;13.57;;
15950;SDS011;8074;48.112;11.570;2022-07-25T02:36:13;14.57;;;13.27;;
15950;SDS011;8074;48.112;11.570;2022-07-25T02:38:40;14.17;;;12.83;;
15950;SDS011;8074;48.112;11.570;2022-07-25T02:41:08;14.87;;;13.47;;
15950;SDS011;8074;48.112;11.570;2022-07-25T02:43:37;14.37;;;13.10;;
15950;SDS011;8074;48.112;11.570;2022-07-25T02:46:05;13.53;;;12.40;;
15950;SDS011;8074;48.112;11.570;2022-07-25T02:48:32;14.10;;;12.90;;
15950;SDS011;8074;48.112;11.570;2022-07-25T02:51:01;15.17;;;13.67;;
15950;SDS011;8074;48.112;11.570;2022-07-25T02:53:28;14.60;;;13.27;;
15950;SDS011;8074;48.112;11.570;2022-07-25T02:55:56;15.37;;;13.77;;
15950;SDS011;8074;48.112;11.570;2022-07-25T02:58:24;13.57;;;12.37;;
15950;SDS011;8074;48.112;11.570;2022-07-25T03:00:54;15.50;;;14.10;;
15950;SDS011;8074;48.112;11.570;2022-07-25T03:03:27;15.27;;;13.67;;
15950;SDS011;8074;48.112;11.570;2022-07-25T03:05:55;14.67;;;12.77;;
15950;SDS011;8074;48.112;11.570;2022-07-25T03:08:25;14.37;;;12.87;;
15950;SDS011;8074;48.112;11.570;2022-07-25T03:10:53;14.87;;;13.57;;
15950;SDS011;8074;48.112;11.570;2022-07-25T03:13:20;15.87;;;14.37;;
15950;SDS011;8074;48.112;11.570;2022-07-25T03:15:47;15.33;;;13.70;;
15950;SDS011;8074;48.112;11.570;2022-07-25T03:18:16;15.60;;;14.03;;
15950;SDS011;8074;48.112;11.570;2022-07-25T03:20:43;14.90;;;13.30;;
15950;SDS011;8074;48.112;11.570;2022-07-25T03:23:10;16.10;;;14.63;;
15950;SDS011;8074;48.112;11.570;2022-07-25T03:25:37;15.17;;;13.57;;
15950;SDS011;8074;48.112;11.570;2022-07-25T03:28:05;15.27;;;13.77;;
15950;SDS011;8074;48.112;11.570;2022-07-25T03:30:32;15.80;;;13.83;;
15950;SDS011;8074;48.112;11.570;2022-07-25T03:32:59;15.70;;;13.40;;
15950;SDS011;8074;48.112;11.570;2022-07-25T03:35:28;14.80;;;13.50;;
15950;SDS011;8074;48.112;11.570;2022-07-25T03:37:55;15.60;;;14.10;;
15950;SDS011;8074;48.112;11.570;2022-07-25T03:40:22;15.47;;;13.97;;
15950;SDS011;8074;48.112;11.570;2022-07-25T03:42:49;16.07;;;14.47;;
15950;SDS011;8074;48.112;11.570;2022-07-25T03:45:16;16.13;;;14.53;;
15950;SDS011;8074;48.112;11.570;2022-07-25T03:47:43;15.53;;;14.03;;
15950;SDS011;8074;48.112;11.570;2022-07-25T03:50:11;17.30;;;14.00;;
15950;SDS011;8074;48.112;11.570;2022-07-25T03:52:39;14.87;;;13.33;;
15950;SDS011;8074;48.112;11.570;2022-07-25T03:55:09;15.80;;;14.17;;
15950;SDS011;8074;48.112;11.570;2022-07-25T03:57:37;16.30;;;14.40;;
15950;SDS011;8074;48.112;11.570;2022-07-25T04:00:05;15.43;;;13.93;;
15950;SDS011;8074;48.112;11.570;2022-07-25T04:02:34;16.07;;;14.47;;
15950;SDS011;8074;48.112;11.570;2022-07-25T04:05:02;15.13;;;13.43;;
15950;SDS011;8074;48.112;11.570;2022-07-25T04:07:33;15.00;;;13.60;;
15950;SDS011;8074;48.112;11.570;2022-07-25T04:10:02;16.57;;;14.83;;
15950;SDS011;8074;48.112;11.570;2022-07-25T04:12:29;14.93;;;13.43;;
15950;SDS011;8074;48.112;11.570;2022-07-25T04:14:56;15.20;;;13.70;;
15950;SDS011;8074;48.112;11.570;2022-07-25T04:17:24;16.30;;;14.60;;
15950;SDS011;8074;48.112;11.570;2022-07-25T04:19:51;14.73;;;13.43;;
15950;SDS011;8074;48.112;11.570;2022-07-25T04:22:18;16.13;;;14.53;;
15950;SDS011;8074;48.112;11.570;2022-07-25T04:24:46;15.20;;;13.70;;
15950;SDS011;8074;48.112;11.570;2022-07-25T04:30:12;15.30;;;13.70;;
15950;SDS011;8074;48.112;11.570;2022-07-25T04:32:46;14.83;;;13.43;;
15950;SDS011;8074;48.112;11.570;2022-07-25T04:35:18;15.13;;;13.70;;
15950;SDS011;8074;48.112;11.570;2022-07-25T04:37:58;15.13;;;13.70;;
15950;SDS011;8074;48.112;11.570;2022-07-25T04:40:25;14.97;;;13.50;;
15950;SDS011;8074;48.112;11.570;2022-07-25T04:42:55;14.23;;;12.93;;
15950;SDS011;8074;48.112;11.570;2022-07-25T04:45:22;14.77;;;13.27;;
15950;SDS011;8074;48.112;11.570;2022-07-25T04:47:53;16.10;;;14.60;;
15950;SDS011;8074;48.112;11.570;2022-07-25T04:50:23;13.97;;;12.67;;
15950;SDS011;8074;48.112;11.570;2022-07-25T05:03:14;15.33;;;13.93;;
15950;SDS011;8074;48.112;11.570;2022-07-25T05:05:43;14.77;;;12.87;;
15950;SDS011;8074;48.112;11.570;2022-07-25T05:08:19;14.63;;;13.33;;
15950;SDS011;8074;48.112;11.570;2022-07-25T05:10:50;14.50;;;13.00;;
15950;SDS011;8074;48.112;11.570;2022-07-25T05:13:33;14.17;;;12.77;;
15950;SDS011;8074;48.112;11.570;2022-07-25T05:16:15;14.87;;;13.23;;
15950;SDS011;8074;48.112;11.570;2022-07-25T05:18:43;14.37;;;12.87;;
15950;SDS011;8074;48.112;11.570;2022-07-25T05:21:11;16.80;;;15.20;;
15950;SDS011;8074;48.112;11.570;2022-07-25T05:23:38;15.07;;;13.43;;
15950;SDS011;8074;48.112;11.570;2022-07-25T05:30:15;14.63;;;13.23;;
15950;SDS011;8074;48.112;11.570;2022-07-25T05:43:39;14.20;;;12.27;;
15950;SDS011;8074;48.112;11.570;2022-07-25T05:46:10;15.43;;;12.20;;
15950;SDS011;8074;48.112;11.570;2022-07-25T05:48:38;13.50;;;12.20;;
15950;SDS011;8074;48.112;11.570;2022-07-25T05:51:06;13.63;;;12.00;;
15950;SDS011;8074;48.112;11.570;2022-07-25T05:53:33;13.30;;;11.97;;
15950;SDS011;8074;48.112;11.570;2022-07-25T05:56:14;13.17;;;12.03;;
15950;SDS011;8074;48.112;11.570;2022-07-25T05:58:43;12.73;;;11.50;;
15950;SDS011;8074;48.112;11.570;2022-07-25T06:01:14;13.83;;;12.40;;
15950;SDS011;8074;48.112;11.570;2022-07-25T06:03:43;14.43;;;12.33;;
15950;SDS011;8074;48.112;11.570;2022-07-25T06:06:19;13.30;;;11.90;;
15950;SDS011;8074;48.112;11.570;2022-07-25T06:08:57;13.53;;;12.00;;
15950;SDS011;8074;48.112;11.570;2022-07-25T06:11:24;13.30;;;12.00;;
15950;SDS011;8074;48.112;11.570;2022-07-25T06:13:54;16.30;;;11.53;;
15950;SDS011;8074;48.112;11.570;2022-07-25T06:16:22;15.37;;;12.37;;
15950;SDS011;8074;48.112;11.570;2022-07-25T06:18:49;12.47;;;11.23;;
15950;SDS011;8074;48.112;11.570;2022-07-25T06:21:16;12.13;;;10.90;;
15950;SDS011;8074;48.112;11.570;2022-07-25T06:23:44;13.50;;;11.70;;
15950;SDS011;8074;48.112;11.570;2022-07-25T06:26:11;12.20;;;10.97;;
15950;SDS011;8074;48.112;11.570;2022-07-25T06:28:38;15.23;;;11.90;;
15950;SDS011;8074;48.112;11.570;2022-07-25T06:31:07;14.00;;;11.87;;
15950;SDS011;8074;48.112;11.570;2022-07-25T06:33:35;12.50;;;11.30;;
15950;SDS011;8074;48.112;11.570;2022-07-25T06:36:03;13.07;;;11.77;;
15950;SDS011;8074;48.112;11.570;2022-07-25T06:38:34;12.20;;;10.60;;
15950;SDS011;8074;48.112;11.570;2022-07-25T06:41:12;11.47;;;10.33;;
15950;SDS011;8074;48.112;11.570;2022-07-25T06:43:40;12.60;;;11.40;;
15950;SDS011;8074;48.112;11.570;2022-07-25T06:46:08;12.43;;;11.23;;
15950;SDS011;8074;48.112;11.570;2022-07-25T06:48:35;14.03;;;11.10;;
15950;SDS011;8074;48.112;11.570;2022-07-25T06:51:03;12.20;;;11.00;;
15950;SDS011;8074;48.112;11.570;2022-07-25T06:53:31;14.50;;;10.77;;
15950;SDS011;8074;48.112;11.570;2022-07-25T06:55:58;12.60;;;11.33;;
15950;SDS011;8074;48.112;11.570;2022-07-25T06:58:25;12.37;;;11.27;;
15950;SDS011;8074;48.112;11.570;2022-07-25T07:00:53;12.13;;;10.80;;
15950;SDS011;8074;48.112;11.570;2022-07-25T07:03:22;12.67;;;11.43;;
15950;SDS011;8074;48.112;11.570;2022-07-25T07:05:52;12.73;;;11.40;;
15950;SDS011;8074;48.112;11.570;2022-07-25T07:08:20;12.97;;;11.70;;
15950;SDS011;8074;48.112;11.570;2022-07-25T07:10:50;12.10;;;10.90;;
15950;SDS011;8074;48.112;11.570;2022-07-25T07:13:17;11.93;;;10.93;;
15950;SDS011;8074;48.112;11.570;2022-07-25T07:15:50;12.60;;;11.43;;
15950;SDS011;8074;48.112;11.570;2022-07-25T07:18:18;12.17;;;11.17;;
15950;SDS011;8074;48.112;11.570;2022-07-25T07:20:47;11.97;;;10.77;;
15950;SDS011;8074;48.112;11.570;2022-07-25T07:23:14;12.47;;;11.17;;
15950;SDS011;8074;48.112;11.570;2022-07-25T07:25:41;16.30;;;12.07;;
15950;SDS011;8074;48.112;11.570;2022-07-25T07:28:09;11.60;;;10.40;;
15950;SDS011;8074;48.112;11.570;2022-07-25T07:30:36;11.27;;;10.23;;
15950;SDS011;8074;48.112;11.570;2022-07-25T07:33:03;11.80;;;10.80;;
15950;SDS011;8074;48.112;11.570;2022-07-25T07:35:30;13.30;;;10.43;;
15950;SDS011;8074;48.112;11.570;2022-07-25T07:38:00;10.77;;;9.77;;
15950;SDS011;8074;48.112;11.570;2022-07-25T07:40:26;13.13;;;11.80;;
15950;SDS011;8074;48.112;11.570;2022-07-25T07:42:54;12.23;;;11.00;;
15950;SDS011;8074;48.112;11.570;2022-07-25T07:45:21;11.37;;;9.60;;
15950;SDS011;8074;48.112;11.570;2022-07-25T07:47:51;11.03;;;9.87;;
15950;SDS011;8074;48.112;11.570;2022-07-25T07:50:20;11.57;;;10.43;;
15950;SDS011;8074;48.112;11.570;2022-07-25T07:52:49;12.57;;;9.97;;
15950;SDS011;8074;48.112;11.570;2022-07-25T07:55:18;11.13;;;10.03;;
15950;SDS011;8074;48.112;11.570;2022-07-25T07:58:03;10.93;;;10.03;;
15950;SDS011;8074;48.112;11.570;2022-07-25T08:00:31;14.73;;;9.90;;
15950;SDS011;8074;48.112;11.570;2022-07-25T08:03:00;10.73;;;9.63;;
15950;SDS011;8074;48.112;11.570;2022-07-25T08:05:30;11.20;;;10.20;;
15950;SDS011;8074;48.112;11.570;2022-07-25T08:07:59;10.20;;;9.20;;
15950;SDS011;8074;48.112;11.570;2022-07-25T08:10:28;10.70;;;9.60;;
15950;SDS011;8074;48.112;11.570;2022-07-25T08:12:57;9.97;;;9.07;;
15950;SDS011;8074;48.112;11.570;2022-07-25T08:15:25;10.37;;;9.27;;
15950;SDS011;8074;48.112;11.570;2022-07-25T08:17:52;9.83;;;8.93;;
15950;SDS011;8074;48.112;11.570;2022-07-25T08:20:20;10.13;;;9.13;;
15950;SDS011;8074;48.112;11.570;2022-07-25T08:22:48;11.63;;;8.90;;
15950;SDS011;8074;48.112;11.570;2022-07-25T08:28:46;9.60;;;8.70;;
15950;SDS011;8074;48.112;11.570;2022-07-25T08:31:14;9.40;;;8.50;;
15950;SDS011;8074;48.112;11.570;2022-07-25T08:33:41;9.43;;;8.53;;
15950;SDS011;8074;48.112;11.570;2022-07-25T08:36:08;10.63;;;8.17;;
15950;SDS011;8074;48.112;11.570;2022-07-25T08:38:36;10.80;;;8.73;;
15950;SDS011;8074;48.112;11.570;2022-07-25T08:41:03;9.93;;;9.00;;
15950;SDS011;8074;48.112;11.570;2022-07-25T08:43:30;9.80;;;8.90;;
15950;SDS011;8074;48.112;11.570;2022-07-25T08:46:00;9.40;;;8.50;;
15950;SDS011;8074;48.112;11.570;2022-07-25T08:48:28;11.63;;;8.30;;
15950;SDS011;8074;48.112;11.570;2022-07-25T08:50:55;9.50;;;8.57;;
15950;SDS011;8074;48.112;11.570;2022-07-25T08:53:23;9.50;;;8.60;;
15950;SDS011;8074;48.112;11.570;2022-07-25T08:55:53;8.97;;;8.17;;
15950;SDS011;8074;48.112;11.570;2022-07-25T08:58:20;9.20;;;8.40;;
15950;SDS011;8074;48.112;11.570;2022-07-25T09:00:47;9.40;;;8.60;;
15950;SDS011;8074;48.112;11.570;2022-07-25T09:03:15;11.20;;;8.57;;
15950;SDS011;8074;48.112;11.570;2022-07-25T09:05:42;9.13;;;8.43;;
15950;SDS011;8074;48.112;11.570;2022-07-25T09:08:09;9.20;;;8.37;;
15950;SDS011;8074;48.112;11.570;2022-07-25T09:10:37;9.23;;;8.43;;
15950;SDS011;8074;48.112;11.570;2022-07-25T09:13:08;9.27;;;8.37;;
15950;SDS011;8074;48.112;11.570;2022-07-25T09:15:38;9.43;;;8.57;;
15950;SDS011;8074;48.112;11.570;2022-07-25T09:18:07;9.50;;;8.60;;
15950;SDS011;8074;48.112;11.570;2022-07-25T09:20:43;8.77;;;7.67;;
15950;SDS011;8074;48.112;11.570;2022-07-25T09:23:14;9.43;;;7.80;;
15950;SDS011;8074;48.112;11.570;2022-07-25T09:26:00;11.17;;;7.63;;
15950;SDS011;8074;48.112;11.570;2022-07-25T09:28:42;8.43;;;7.60;;
15950;SDS011;8074;48.112;11.570;2022-07-25T09:31:11;8.43;;;7.63;;
15950;SDS011;8074;48.112;11.570;2022-07-25T09:33:43;8.20;;;7.40;;
15950;SDS011;8074;48.112;11.570;2022-07-25T09:36:13;10.27;;;7.43;;
15950;SDS011;8074;48.112;11.570;2022-07-25T09:38:49;13.83;;;7.40;;
15950;SDS011;8074;48.112;11.570;2022-07-25T09:41:17;7.47;;;6.73;;
15950;SDS011;8074;48.112;11.570;2022-07-25T09:43:44;7.43;;;6.73;;
15950;SDS011;8074;48.112;11.570;2022-07-25T09:46:12;7.67;;;6.87;;
15950;SDS011;8074;48.112;11.570;2022-07-25T09:48:39;7.70;;;7.00;;
15950;SDS011;8074;48.112;11.570;2022-07-25T09:51:09;9.83;;;7.17;;
15950;SDS011;8074;48.112;11.570;2022-07-25T09:53:37;7.30;;;6.60;;
15950;SDS011;8074;48.112;11.570;2022-07-25T09:56:06;7.87;;;7.00;;
15950;SDS011;8074;48.112;11.570;2022-07-25T09:58:33;7.50;;;6.63;;
15950;SDS011;8074;48.112;11.570;2022-07-25T10:01:01;8.57;;;7.10;;
15950;SDS011;8074;48.112;11.570;2022-07-25T10:03:32;7.03;;;6.43;;
15950;SDS011;8074;48.112;11.570;2022-07-25T10:06:14;8.13;;;7.33;;
15950;SDS011;8074;48.112;11.570;2022-07-25T10:08:47;7.47;;;6.87;;
15950;SDS011;8074;48.112;11.570;2022-07-25T10:11:19;8.13;;;7.43;;
15950;SDS011;8074;48.112;11.570;2022-07-25T10:13:47;7.87;;;7.17;;
15950;SDS011;8074;48.112;11.570;2022-07-25T10:16:18;9.63;;;7.10;;
15950;SDS011;8074;48.112;11.570;2022-07-25T10:18:47;7.63;;;6.40;;
15950;SDS011;8074;48.112;11.570;2022-07-25T10:21:16;7.00;;;6.40;;
15950;SDS011;8074;48.112;11.570;2022-07-25T10:23:43;7.40;;;6.67;;
15950;SDS011;8074;48.112;11.570;2022-07-25T10:26:12;7.10;;;6.50;;
15950;SDS011;8074;48.112;11.570;2022-07-25T10:28:42;7.70;;;7.00;;
15950;SDS011;8074;48.112;11.570;2022-07-25T10:31:15;7.10;;;6.40;;
15950;SDS011;8074;48.112;11.570;2022-07-25T10:33:47;7.03;;;6.43;;
15950;SDS011;8074;48.112;11.570;2022-07-25T10:36:19;7.90;;;7.10;;
15950;SDS011;8074;48.112;11.570;2022-07-25T10:41:51;7.90;;;6.80;;
15950;SDS011;8074;48.112;11.570;2022-07-25T10:44:20;6.93;;;6.20;;
15950;SDS011;8074;48.112;11.570;2022-07-25T10:46:47;7.13;;;6.43;;
15950;SDS011;8074;48.112;11.570;2022-07-25T10:49:16;7.00;;;6.00;;
15950;SDS011;8074;48.112;11.570;2022-07-25T10:51:50;7.20;;;5.87;;
15950;SDS011;8074;48.112;11.570;2022-07-25T10:54:20;5.97;;;5.47;;
15950;SDS011;8074;48.112;11.570;2022-07-25T10:56:53;8.93;;;5.83;;
15950;SDS011;8074;48.112;11.570;2022-07-25T10:59:25;8.47;;;5.60;;
15950;SDS011;8074;48.112;11.570;2022-07-25T11:01:53;6.00;;;5.03;;
15950;SDS011;8074;48.112;11.570;2022-07-25T11:04:21;5.53;;;5.10;;
15950;SDS011;8074;48.112;11.570;2022-07-25T11:06:49;5.77;;;5.10;;
15950;SDS011;8074;48.112;11.570;2022-07-25T11:09:17;7.00;;;6.37;;
15950;SDS011;8074;48.112;11.570;2022-07-25T11:11:45;7.03;;;6.23;;
15950;SDS011;8074;48.112;11.570;2022-07-25T11:14:28;7.10;;;6.20;;
15950;SDS011;8074;48.112;11.570;2022-07-25T11:17:10;12.33;;;5.80;;
15950;SDS011;8074;48.112;11.570;2022-07-25T11:19:52;5.53;;;4.77;;
15950;SDS011;8074;48.112;11.570;2022-07-25T11:25:22;5.07;;;4.67;;
15950;SDS011;8074;48.112;11.570;2022-07-25T11:30:33;5.00;;;4.60;;
15950;SDS011;8074;48.112;11.570;2022-07-25T11:33:00;6.13;;;4.73;;
15950;SDS011;8074;48.112;11.570;2022-07-25T11:37:59;18.37;;;5.43;;
15950;SDS011;8074;48.112;11.570;2022-07-25T11:40:29;6.67;;;4.50;;
15950;SDS011;8074;48.112;11.570;2022-07-25T11:42:58;5.27;;;4.40;;
15950;SDS011;8074;48.112;11.570;2022-07-25T11:45:32;4.80;;;4.40;;
15950;SDS011;8074;48.112;11.570;2022-07-25T11:48:01;4.70;;;4.03;;
15950;SDS011;8074;48.112;11.570;2022-07-25T11:50:32;5.38;;;4.55;;
15950;SDS011;8074;48.112;11.570;2022-07-25T11:53:01;4.57;;;4.25;;
15950;SDS011;8074;48.112;11.570;2022-07-25T11:55:31;5.23;;;4.17;;
15950;SDS011;8074;48.112;11.570;2022-07-25T11:58:02;4.90;;;4.40;;
15950;SDS011;8074;48.112;11.570;2022-07-25T12:03:06;4.77;;;4.37;;
15950;SDS011;8074;48.112;11.570;2022-07-25T12:17:26;7.00;;;4.80;;
15950;SDS011;8074;48.112;11.570;2022-07-25T12:25:58;6.33;;;5.10;;
15950;SDS011;8074;48.112;11.570;2022-07-25T12:28:25;7.23;;;4.60;;
15950;SDS011;8074;48.112;11.570;2022-07-25T12:30:53;5.80;;;5.20;;
15950;SDS011;8074;48.112;11.570;2022-07-25T12:33:20;5.80;;;5.10;;
15950;SDS011;8074;48.112;11.570;2022-07-25T12:35:50;5.20;;;4.70;;
15950;SDS011;8074;48.112;11.570;2022-07-25T12:44:20;5.73;;;5.20;;
15950;SDS011;8074;48.112;11.570;2022-07-25T12:49:20;8.40;;;5.50;;
15950;SDS011;8074;48.112;11.570;2022-07-25T12:51:48;6.97;;;5.13;;
15950;SDS011;8074;48.112;11.570;2022-07-25T12:54:14;7.77;;;5.33;;
15950;SDS011;8074;48.112;11.570;2022-07-25T12:56:41;7.23;;;5.03;;
15950;SDS011;8074;48.112;11.570;2022-07-25T12:59:08;6.13;;;5.53;;
15950;SDS011;8074;48.112;11.570;2022-07-25T13:01:37;7.95;;;5.30;;
15950;SDS011;8074;48.112;11.570;2022-07-25T13:04:04;6.13;;;4.70;;
15950;SDS011;8074;48.112;11.570;2022-07-25T13:06:33;6.65;;;5.20;;
15950;SDS011;8074;48.112;11.570;2022-07-25T13:09:01;7.77;;;5.37;;
15950;SDS011;8074;48.112;11.570;2022-07-25T13:16:31;6.87;;;4.80;;
15950;SDS011;8074;48.112;11.570;2022-07-25T13:21:29;5.83;;;5.23;;
15950;SDS011;8074;48.112;11.570;2022-07-25T13:24:02;5.67;;;5.10;;
15950;SDS011;8074;48.112;11.570;2022-07-25T13:26:32;6.03;;;5.40;;
15950;SDS011;8074;48.112;11.570;2022-07-25T13:29:00;8.60;;;5.20;;
15950;SDS011;8074;48.112;11.570;2022-07-25T13:31:27;5.57;;;5.00;;
15950;SDS011;8074;48.112;11.570;2022-07-25T13:33:55;6.93;;;5.20;;
15950;SDS011;8074;48.112;11.570;2022-07-25T13:36:45;7.33;;;5.60;;
15950;SDS011;8074;48.112;11.570;2022-07-25T13:50:29;6.97;;;5.10;;
15950;SDS011;8074;48.112;11.570;2022-07-25T13:52:59;7.03;;;5.80;;
15950;SDS011;8074;48.112;11.570;2022-07-25T13:55:33;6.73;;;5.60;;
15950;SDS011;8074;48.112;11.570;2022-07-25T13:58:00;5.90;;;5.27;;
15950;SDS011;8074;48.112;11.570;2022-07-25T14:00:27;5.22;;;4.75;;
15950;SDS011;8074;48.112;11.570;2022-07-25T14:02:55;5.05;;;4.63;;
15950;SDS011;8074;48.112;11.570;2022-07-25T14:08:07;5.50;;;5.00;;
15950;SDS011;8074;48.112;11.570;2022-07-25T14:10:46;5.68;;;4.47;;
15950;SDS011;8074;48.112;11.570;2022-07-25T14:13:15;5.28;;;4.18;;
15950;SDS011;8074;48.112;11.570;2022-07-25T14:15:43;7.05;;;4.82;;
15950;SDS011;8074;48.112;11.570;2022-07-25T14:18:11;5.93;;;4.50;;
15950;SDS011;8074;48.112;11.570;2022-07-25T14:20:37;6.25;;;4.80;;
15950;SDS011;8074;48.112;11.570;2022-07-25T14:23:04;5.63;;;4.67;;
15950;SDS011;8074;48.112;11.570;2022-07-25T14:25:33;6.00;;;4.27;;
15950;SDS011;8074;48.112;11.570;2022-07-25T14:28:00;7.27;;;5.07;;
15950;SDS011;8074;48.112;11.570;2022-07-25T14:30:28;6.10;;;4.23;;
15950;SDS011;8074;48.112;11.570;2022-07-25T14:32:54;10.70;;;4.50;;
15950;SDS011;8074;48.112;11.570;2022-07-25T14:35:21;5.80;;;4.57;;
15950;SDS011;8074;48.112;11.570;2022-07-25T14:37:49;5.37;;;4.87;;
15950;SDS011;8074;48.112;11.570;2022-07-25T14:40:16;6.70;;;4.50;;
15950;SDS011;8074;48.112;11.570;2022-07-25T14:42:44;5.30;;;4.40;;
15950;SDS011;8074;48.112;11.570;2022-07-25T14:45:12;7.87;;;4.90;;
15950;SDS011;8074;48.112;11.570;2022-07-25T14:47:40;5.00;;;4.60;;
15950;SDS011;8074;48.112;11.570;2022-07-25T14:50:40;5.07;;;4.60;;
15950;SDS011;8074;48.112;11.570;2022-07-25T14:53:10;6.40;;;4.73;;
15950;SDS011;8074;48.112;11.570;2022-07-25T14:55:56;5.20;;;4.50;;
15950;SDS011;8074;48.112;11.570;2022-07-25T14:58:26;4.37;;;3.93;;
15950;SDS011;8074;48.112;11.570;2022-07-25T15:00:54;13.57;;;5.10;;
15950;SDS011;8074;48.112;11.570;2022-07-25T15:03:24;4.60;;;4.20;;
15950;SDS011;8074;48.112;11.570;2022-07-25T15:05:51;4.50;;;4.10;;
15950;SDS011;8074;48.112;11.570;2022-07-25T15:08:19;5.37;;;4.30;;
15950;SDS011;8074;48.112;11.570;2022-07-25T15:10:46;6.63;;;4.47;;
15950;SDS011;8074;48.112;11.570;2022-07-25T15:13:13;7.33;;;4.20;;
15950;SDS011;8074;48.112;11.570;2022-07-25T15:15:41;5.87;;;4.23;;
15950;SDS011;8074;48.112;11.570;2022-07-25T15:18:08;6.63;;;4.63;;
15950;SDS011;8074;48.112;11.570;2022-07-25T15:20:35;6.60;;;4.10;;
15950;SDS011;8074;48.112;11.570;2022-07-25T15:23:03;4.10;;;3.80;;
15950;SDS011;8074;48.112;11.570;2022-07-25T15:25:30;8.53;;;3.60;;
15950;SDS011;8074;48.112;11.570;2022-07-25T15:27:57;6.00;;;3.70;;
15950;SDS011;8074;48.112;11.570;2022-07-25T15:30:25;5.00;;;3.77;;
15950;SDS011;8074;48.112;11.570;2022-07-25T15:32:53;4.03;;;3.47;;
15950;SDS011;8074;48.112;11.570;2022-07-25T15:35:20;4.00;;;3.70;;
15950;SDS011;8074;48.112;11.570;2022-07-25T15:37:47;4.22;;;3.72;;
15950;SDS011;8074;48.112;11.570;2022-07-25T15:40:14;5.68;;;3.72;;
15950;SDS011;8074;48.112;11.570;2022-07-25T15:42:41;4.97;;;3.80;;
15950;SDS011;8074;48.112;11.570;2022-07-25T15:45:08;4.27;;;3.83;;
15950;SDS011;8074;48.112;11.570;2022-07-25T15:47:35;4.60;;;3.53;;
15950;SDS011;8074;48.112;11.570;2022-07-25T15:50:05;6.17;;;4.20;;
15950;SDS011;8074;48.112;11.570;2022-07-25T15:52:32;4.40;;;4.00;;
15950;SDS011;8074;48.112;11.570;2022-07-25T15:54:59;4.40;;;4.00;;
15950;SDS011;8074;48.112;11.570;2022-07-25T15:57:26;5.60;;;3.90;;
15950;SDS011;8074;48.112;11.570;2022-07-25T15:59:54;4.37;;;3.77;;
15950;SDS011;8074;48.112;11.570;2022-07-25T16:02:22;4.33;;;3.93;;
15950;SDS011;8074;48.112;11.570;2022-07-25T16:04:51;9.10;;;4.03;;
15950;SDS011;8074;48.112;11.570;2022-07-25T16:07:20;6.13;;;3.87;;
15950;SDS011;8074;48.112;11.570;2022-07-25T16:09:47;4.03;;;3.63;;
15950;SDS011;8074;48.112;11.570;2022-07-25T16:12:15;6.13;;;3.93;;
15950;SDS011;8074;48.112;11.570;2022-07-25T16:14:44;5.30;;;3.50;;
15950;SDS011;8074;48.112;11.570;2022-07-25T16:17:10;4.20;;;3.80;;